Terminal Aerodrome Forecast
Issued by NWS

Home | Current Version | Previous Version | Text Only | Print | Product List | Glossary On
Versions: 1 2 3 4 5 6 7 8 9 10 11 12 13 14 15 16 17 18 19 20
000
FTUS45 KGJT 231733
TAFRIL
TAF
KRIL 231733Z 2318/2418 VRB03KT P6SM FEW110 SCT200
     FM232000 27015G25KT P6SM SCT100 SCT250
     FM240200 29011KT P6SM VCSH BKN090 BKN150
     FM240900 25009KT P6SM FEW080 SCT150
     FM241400 32006KT P6SM FEW070 SCT150=

USA.gov is the U.S. government's official web portal to all federal, state and local government web resources and services.